Time;durP1;ratioP1;P1;durP2;ratioP2;P2;SDS_P1;SDS_P2;PMS_P1;PMS_P2;Temp;Humidity;BMP_temperature;BMP_pressure;BME280_temperature;BME280_humidity;BME280_pressure;Samples;Min_cycle;Max_cycle;Signal;HPM_P1;HPM_P2
2023/07/01 00:02:21;;;;;;;2.42;1.38;;;;;;;-147.53;100.00;57128.34;10468865;28;20049;-76
2023/07/01 00:07:23;;;;;;;3.05;1.50;;;;;;;-147.53;100.00;57128.34;10484675;28;20536;-76
2023/07/01 00:12:24;;;;;;;2.58;1.33;;;;;;;-147.53;100.00;57128.34;10488432;28;20048;-76
2023/07/01 00:17:26;;;;;;;2.22;1.10;;;;;;;-147.53;100.00;57128.34;10470646;28;20139;-76
2023/07/01 00:22:28;;;;;;;3.65;1.58;;;;;;;-147.53;100.00;57128.34;10491859;28;20052;-76
2023/07/01 00:27:29;;;;;;;3.92;1.42;;;;;;;-147.53;100.00;57128.34;10481597;28;20094;-76
2023/07/01 00:32:31;;;;;;;3.10;1.60;;;;;;;-147.53;100.00;57128.34;10470475;28;20052;-76
2023/07/01 00:37:33;;;;;;;1.88;1.13;;;;;;;-147.53;100.00;57128.34;10470230;28;20552;-76
2023/07/01 00:42:35;;;;;;;2.45;1.42;;;;;;;-147.53;100.00;57128.34;10471010;28;20094;-76
2023/07/01 00:47:38;;;;;;;5.32;1.48;;;;;;;-147.53;100.00;57128.34;10470476;28;20044;-76
2023/07/01 00:52:42;;;;;;;3.13;1.42;;;;;;;-147.53;100.00;57128.34;10479923;28;20519;-76
2023/07/01 00:57:43;;;;;;;5.40;1.90;;;;;;;-147.53;100.00;57128.34;10488286;28;20557;-76
2023/07/01 01:02:54;;;;;;;4.57;1.50;;;;;;;-147.53;100.00;57128.34;10470506;28;20083;-76
2023/07/01 01:08:05;;;;;;;2.70;1.27;;;;;;;-147.53;100.00;57128.34;10487706;28;20044;-76
2023/07/01 01:13:07;;;;;;;6.82;1.38;;;;;;;-147.53;100.00;57128.34;10469427;28;20040;-76
2023/07/01 01:18:16;;;;;;;4.13;1.77;;;;;;;-147.53;100.00;57128.34;10463862;28;20094;-76
2023/07/01 01:23:34;;;;;;;1.88;1.27;;;;;;;-147.53;100.00;57128.34;10464880;28;20126;-76
2023/07/01 01:28:36;;;;;;;4.53;1.50;;;;;;;-147.53;100.00;57128.34;10463511;28;20056;-76
2023/07/01 01:33:39;;;;;;;3.55;1.85;;;;;;;-147.53;100.00;57128.34;10468507;28;20117;-76
2023/07/01 01:38:41;;;;;;;2.13;1.27;;;;;;;-147.53;100.00;57128.34;10488454;28;20140;-76
2023/07/01 01:43:53;;;;;;;2.42;1.42;;;;;;;-147.53;100.00;57128.34;10487661;28;20056;-76
2023/07/01 01:48:57;;;;;;;3.28;1.60;;;;;;;-147.53;100.00;57128.34;10487333;28;20252;-76
2023/07/01 01:53:58;;;;;;;3.78;1.20;;;;;;;-147.53;100.00;57128.34;10492228;28;20049;-76
2023/07/01 01:59:00;;;;;;;2.83;1.63;;;;;;;-147.53;100.00;57128.34;10471147;28;20052;-76
2023/07/01 02:04:02;;;;;;;11.77;2.17;;;;;;;-147.53;100.00;57128.34;10502318;28;20040;-76
2023/07/01 02:09:04;;;;;;;2.47;1.67;;;;;;;-147.53;100.00;57128.34;10471692;28;20044;-76
2023/07/01 02:14:06;;;;;;;2.85;1.60;;;;;;;-147.53;100.00;57128.34;10470314;28;20383;-76
2023/07/01 02:19:07;;;;;;;2.78;1.48;;;;;;;-147.53;100.00;57128.34;10487198;28;20037;-76
2023/07/01 02:24:09;;;;;;;2.22;1.25;;;;;;;-147.53;100.00;57128.34;10472993;28;20152;-76
2023/07/01 02:29:11;;;;;;;5.30;1.58;;;;;;;-147.53;100.00;57128.34;10489112;28;20140;-76
2023/07/01 02:34:12;;;;;;;3.33;2.03;;;;;;;-147.53;100.00;57128.34;10504488;28;20040;-76
2023/07/01 02:39:14;;;;;;;5.78;2.03;;;;;;;-147.53;100.00;57128.34;10472332;28;20486;-76
2023/07/01 02:44:16;;;;;;;3.67;1.73;;;;;;;-147.53;100.00;57128.34;10464975;28;20514;-77
2023/07/01 02:49:18;;;;;;;2.08;1.20;;;;;;;-147.53;100.00;57128.34;10471891;28;20087;-77
2023/07/01 02:54:20;;;;;;;4.03;1.60;;;;;;;-147.53;100.00;57128.34;10475529;28;20076;-77
2023/07/01 02:59:22;;;;;;;2.53;1.58;;;;;;;-147.53;100.00;57128.34;10472662;28;20655;-76
2023/07/01 03:04:24;;;;;;;3.38;1.55;;;;;;;-147.53;100.00;57128.34;10490251;28;20052;-76
2023/07/01 03:09:27;;;;;;;3.55;1.40;;;;;;;-147.53;100.00;57128.34;10490027;28;20072;-76
2023/07/01 03:14:29;;;;;;;2.67;1.38;;;;;;;-147.53;100.00;57128.34;10471974;28;20088;-76
2023/07/01 03:19:30;;;;;;;5.38;1.55;;;;;;;-147.53;100.00;57128.34;10490762;28;20506;-76
2023/07/01 03:24:33;;;;;;;6.63;1.85;;;;;;;-147.53;100.00;57128.34;10475151;28;20048;-76
2023/07/01 03:29:35;;;;;;;2.45;1.40;;;;;;;-147.53;100.00;57128.34;10475916;28;20055;-76
2023/07/01 03:34:38;;;;;;;3.88;1.40;;;;;;;-147.53;100.00;57128.34;10479124;28;20052;-76
2023/07/01 03:39:39;;;;;;;2.72;1.35;;;;;;;-147.53;100.00;57128.34;10497876;28;20079;-76
2023/07/01 03:44:41;;;;;;;4.47;1.65;;;;;;;-147.53;100.00;57128.34;10495366;28;20102;-75
2023/07/01 03:49:43;;;;;;;2.88;1.20;;;;;;;-147.53;100.00;57128.34;10498267;28;20053;-76
2023/07/01 03:54:45;;;;;;;2.13;1.25;;;;;;;-147.53;100.00;57128.34;10500795;28;20541;-76
2023/07/01 03:59:48;;;;;;;2.67;1.38;;;;;;;-147.53;100.00;57128.34;10498097;28;20067;-76
2023/07/01 04:04:49;;;;;;;5.10;1.30;;;;;;;-147.53;100.00;57128.34;10498957;28;20079;-76
2023/07/01 04:09:51;;;;;;;4.15;1.20;;;;;;;-147.53;100.00;57128.34;10497887;28;20075;-76
2023/07/01 04:14:52;;;;;;;4.80;1.48;;;;;;;-147.53;100.00;57128.34;10493527;28;20581;-76
2023/07/01 04:19:54;;;;;;;3.65;1.60;;;;;;;-147.53;100.00;57128.34;10499024;28;20124;-76
2023/07/01 04:24:56;;;;;;;10.40;1.60;;;;;;;-147.53;100.00;57128.34;10498166;28;20052;-76
2023/07/01 04:29:57;;;;;;;7.55;1.65;;;;;;;-147.53;100.00;57128.34;10491011;28;20445;-77
2023/07/01 04:35:00;;;;;;;3.53;1.70;;;;;;;-147.53;100.00;57128.34;10486534;28;20064;-76
2023/07/01 04:40:02;;;;;;;2.03;0.90;;;;;;;-147.53;100.00;57128.34;10479432;28;20590;-76
2023/07/01 04:45:06;;;;;;;2.50;1.20;;;;;;;-147.53;100.00;57128.34;10473152;28;20127;-77
2023/07/01 04:50:08;;;;;;;4.05;1.02;;;;;;;-147.53;100.00;57128.34;10495229;28;20037;-76
2023/07/01 04:55:10;;;;;;;1.63;0.95;;;;;;;-147.53;100.00;57128.34;10496855;28;20529;-76
2023/07/01 05:00:12;;;;;;;4.53;1.30;;;;;;;-147.53;100.00;57128.34;10487103;28;20437;-76
2023/07/01 05:05:14;;;;;;;7.38;1.65;;;;;;;-147.53;100.00;57128.34;10480179;28;20068;-77
2023/07/01 05:10:16;;;;;;;2.88;1.10;;;;;;;-147.53;100.00;57128.34;10500599;28;20112;-78
2023/07/01 05:15:17;;;;;;;2.70;1.30;;;;;;;-147.53;100.00;57128.34;10502048;28;20042;-77
2023/07/01 05:20:19;;;;;;;3.28;1.58;;;;;;;-147.53;100.00;57128.34;10470130;28;20044;-77
2023/07/01 05:25:20;;;;;;;3.45;1.65;;;;;;;-147.53;100.00;57128.34;10430454;28;20093;-77
2023/07/01 05:30:22;;;;;;;2.50;1.00;;;;;;;-147.53;100.00;57128.34;10438442;28;20148;-77
2023/07/01 05:35:24;;;;;;;2.30;1.23;;;;;;;-147.53;100.00;57128.34;10448922;28;20039;-77
2023/07/01 05:40:25;;;;;;;4.38;1.65;;;;;;;-147.53;100.00;57128.34;10448456;28;20106;-79
2023/07/01 05:45:27;;;;;;;2.45;1.13;;;;;;;-147.53;100.00;57128.34;10456773;28;20063;-78
2023/07/01 05:50:28;;;;;;;2.83;1.42;;;;;;;-147.53;100.00;57128.34;10439893;28;20048;-78
2023/07/01 05:55:30;;;;;;;3.20;1.88;;;;;;;-147.53;100.00;57128.34;10446827;28;20056;-79
2023/07/01 06:00:32;;;;;;;5.43;1.85;;;;;;;-147.53;100.00;57128.34;10443793;28;20538;-78
2023/07/01 06:05:33;;;;;;;6.97;1.70;;;;;;;-147.53;100.00;57128.34;10460266;28;20056;-79
2023/07/01 06:10:35;;;;;;;3.33;1.63;;;;;;;-147.53;100.00;57128.34;10460628;28;20041;-79
2023/07/01 06:15:36;;;;;;;3.92;1.50;;;;;;;-147.53;100.00;57128.34;10478683;28;20071;-79
2023/07/01 06:20:38;;;;;;;5.40;1.52;;;;;;;-147.53;100.00;57128.34;10476717;28;20074;-80
2023/07/01 06:25:40;;;;;;;4.75;2.03;;;;;;;-147.53;100.00;57128.34;10482659;28;20065;-78
2023/07/01 06:30:42;;;;;;;6.28;1.90;;;;;;;-147.53;100.00;57128.34;10487573;28;20056;-79
2023/07/01 06:35:45;;;;;;;3.65;1.25;;;;;;;-147.53;100.00;57128.34;10502117;28;20051;-78
2023/07/01 06:40:47;;;;;;;2.83;1.70;;;;;;;-147.53;100.00;57128.34;10493084;28;20055;-79
2023/07/01 06:45:49;;;;;;;1.98;1.55;;;;;;;-147.53;100.00;57128.34;10508819;28;20056;-78
2023/07/01 06:50:51;;;;;;;3.20;1.42;;;;;;;-147.53;100.00;57128.34;10493999;28;20133;-78
2023/07/01 06:55:52;;;;;;;2.88;1.58;;;;;;;-147.53;100.00;57128.34;10474958;28;20060;-78
2023/07/01 07:00:54;;;;;;;4.72;1.90;;;;;;;-147.53;100.00;57128.34;10475452;28;20104;-78
2023/07/01 07:05:55;;;;;;;4.25;1.60;;;;;;;-147.53;100.00;57128.34;10476652;28;20132;-77
2023/07/01 07:10:57;;;;;;;3.92;1.70;;;;;;;-147.53;100.00;57128.34;10479395;28;20052;-77
2023/07/01 07:15:59;;;;;;;4.22;1.85;;;;;;;-147.53;100.00;57128.34;10480418;28;20425;-76
2023/07/01 07:21:00;;;;;;;4.72;1.88;;;;;;;-147.53;100.00;57128.34;10489111;28;20083;-77
2023/07/01 07:26:02;;;;;;;3.72;1.77;;;;;;;-147.53;100.00;57128.34;10471313;28;20040;-78
2023/07/01 07:31:04;;;;;;;5.95;1.60;;;;;;;-147.53;100.00;57128.34;10489912;28;20072;-78
2023/07/01 07:36:05;;;;;;;1.48;0.77;;;;;;;-147.53;100.00;57128.34;10477316;28;20052;-77
2023/07/01 07:41:07;;;;;;;2.20;1.40;;;;;;;-147.53;100.00;57128.34;10506327;28;20079;-78
2023/07/01 07:46:09;;;;;;;2.25;1.10;;;;;;;-147.53;100.00;57128.34;10515858;28;20033;-78
2023/07/01 07:51:11;;;;;;;3.40;1.88;;;;;;;-147.53;100.00;57128.34;10516199;28;20048;-79
2023/07/01 07:56:12;;;;;;;3.20;1.60;;;;;;;-147.53;100.00;57128.34;10517063;28;20048;-77
2023/07/01 08:01:14;;;;;;;2.63;1.42;;;;;;;-147.53;100.00;57128.34;10512464;28;20061;-79
2023/07/01 08:06:17;;;;;;;3.20;1.92;;;;;;;-147.53;100.00;57128.34;10507903;28;20052;-77
2023/07/01 08:11:18;;;;;;;2.35;1.33;;;;;;;-147.53;100.00;57128.34;10494530;28;20036;-78
2023/07/01 08:16:20;;;;;;;4.07;1.40;;;;;;;-147.53;100.00;57128.34;10515398;28;20079;-78
2023/07/01 08:21:22;;;;;;;2.13;1.20;;;;;;;-147.53;100.00;57128.34;10496294;28;20124;-77
2023/07/01 08:26:23;;;;;;;2.25;1.33;;;;;;;-147.53;100.00;57128.34;10504397;28;20056;-76
2023/07/01 08:31:25;;;;;;;2.25;1.58;;;;;;;-147.53;100.00;57128.34;10499955;28;20048;-76
2023/07/01 08:36:26;;;;;;;2.78;1.35;;;;;;;-147.53;100.00;57128.34;10475331;28;20532;-76
2023/07/01 08:41:32;;;;;;;1.27;0.95;;;;;;;-147.53;100.00;57128.34;10488881;28;20048;-75
2023/07/01 08:46:35;;;;;;;8.40;1.50;;;;;;;-147.53;100.00;57128.34;10461654;28;20045;-76
2023/07/01 08:51:41;;;;;;;1.48;0.73;;;;;;;-147.53;100.00;57128.34;10452140;28;20079;-76
2023/07/01 08:56:46;;;;;;;7.22;1.33;;;;;;;-147.53;100.00;57128.34;10494790;28;20128;-75
2023/07/01 09:02:12;;;;;;;2.97;1.35;;;;;;;-147.53;100.00;57128.34;10495174;28;20063;-77
2023/07/01 09:07:14;;;;;;;3.50;1.25;;;;;;;-147.53;100.00;57128.34;10486466;28;20668;-76
2023/07/01 09:12:16;;;;;;;2.13;1.33;;;;;;;-147.53;100.00;57128.34;10484118;28;20068;-77
2023/07/01 09:17:32;;;;;;;2.38;1.20;;;;;;;-147.53;100.00;57128.34;10505543;28;20076;-77
2023/07/01 09:22:35;;;;;;;1.63;0.90;;;;;;;-147.53;100.00;57128.34;10504785;28;20052;-77
2023/07/01 09:27:40;;;;;;;2.47;1.20;;;;;;;-147.53;100.00;57128.34;10489091;28;20531;-74
2023/07/01 09:32:41;;;;;;;1.20;0.98;;;;;;;-147.53;100.00;57128.34;10504767;28;20051;-76
2023/07/01 09:37:43;;;;;;;2.13;1.30;;;;;;;-147.53;100.00;57128.34;10509688;28;20054;-77
2023/07/01 09:42:52;;;;;;;2.30;1.30;;;;;;;-147.53;100.00;57128.34;10508372;28;20525;-77
2023/07/01 09:47:53;;;;;;;1.73;0.80;;;;;;;-147.53;100.00;57128.34;10479360;28;20745;-77
2023/07/01 09:52:56;;;;;;;1.10;0.80;;;;;;;-147.53;100.00;57128.34;10476294;28;20052;-77
2023/07/01 09:57:58;;;;;;;0.98;0.88;;;;;;;-147.53;100.00;57128.34;10483323;28;20436;-77
2023/07/01 10:03:00;;;;;;;2.92;1.38;;;;;;;-147.53;100.00;57128.34;10473297;28;20111;-76
2023/07/01 10:08:02;;;;;;;2.05;1.48;;;;;;;-147.53;100.00;57128.34;10500113;28;20055;-78
2023/07/01 10:13:06;;;;;;;3.05;1.33;;;;;;;-147.53;100.00;57128.34;10474568;28;20054;-77
2023/07/01 10:18:22;;;;;;;2.90;1.50;;;;;;;-147.53;100.00;57128.34;10502580;28;20515;-77
2023/07/01 10:23:44;;;;;;;5.65;1.60;;;;;;;-147.53;100.00;57128.34;10481821;28;20056;-77
2023/07/01 10:28:45;;;;;;;2.97;1.27;;;;;;;-147.53;100.00;57128.34;10472224;28;20265;-77
2023/07/01 10:33:48;;;;;;;3.20;1.30;;;;;;;-147.53;100.00;57128.34;10496890;28;20691;-77
2023/07/01 10:38:50;;;;;;;3.70;1.80;;;;;;;-147.53;100.00;57128.34;10475543;28;20094;-77
2023/07/01 10:44:20;;;;;;;4.22;1.70;;;;;;;-147.53;100.00;57128.34;10482001;28;20083;-78
2023/07/01 10:49:21;;;;;;;3.75;1.42;;;;;;;-147.53;100.00;57128.34;10487084;28;20127;-77
2023/07/01 10:54:35;;;;;;;2.70;1.50;;;;;;;-147.53;100.00;57128.34;10505950;28;20047;-77
2023/07/01 10:59:38;;;;;;;4.05;1.75;;;;;;;-147.53;100.00;57128.34;10508340;28;20040;-77
2023/07/01 11:04:51;;;;;;;2.28;1.35;;;;;;;-147.53;100.00;57128.34;10499261;28;20056;-77
2023/07/01 11:09:54;;;;;;;2.88;1.30;;;;;;;-147.53;100.00;57128.34;10507157;28;20592;-77
2023/07/01 11:14:56;;;;;;;1.83;1.08;;;;;;;-147.53;100.00;57128.34;10520711;28;20097;-77
2023/07/01 11:19:58;;;;;;;3.10;1.60;;;;;;;-147.53;100.00;57128.34;10522017;28;20127;-77
2023/07/01 11:25:03;;;;;;;2.63;1.45;;;;;;;-147.53;100.00;57128.34;10519939;28;20078;-77
2023/07/01 11:30:09;;;;;;;3.22;1.40;;;;;;;-147.53;100.00;57128.34;10493482;28;20048;-84
2023/07/01 11:35:11;;;;;;;1.60;0.93;;;;;;;-147.53;100.00;57128.34;10500677;28;20079;-82
2023/07/01 11:40:13;;;;;;;5.10;1.45;;;;;;;-147.53;100.00;57128.34;10523900;28;20029;-81
2023/07/01 11:45:15;;;;;;;1.60;1.30;;;;;;;-147.53;100.00;57128.34;10506896;28;20144;-80
2023/07/01 11:50:16;;;;;;;2.17;1.20;;;;;;;-147.53;100.00;57128.34;10506226;28;20098;-81
2023/07/01 11:55:34;;;;;;;4.18;1.70;;;;;;;-147.53;100.00;57128.34;10509921;28;20048;-80
2023/07/01 12:00:38;;;;;;;3.13;1.40;;;;;;;-147.53;100.00;57128.34;10527088;28;20123;-81
2023/07/01 12:05:46;;;;;;;2.35;1.25;;;;;;;-147.53;100.00;57128.34;10524285;28;20493;-80
2023/07/01 12:10:48;;;;;;;5.27;1.83;;;;;;;-147.53;100.00;57128.34;10521331;28;20050;-80
2023/07/01 12:15:50;;;;;;;3.35;1.55;;;;;;;-147.53;100.00;57128.34;10502142;28;20459;-81
2023/07/01 12:20:54;;;;;;;2.13;1.13;;;;;;;-147.53;100.00;57128.34;10507007;28;20052;-80
2023/07/01 12:25:57;;;;;;;1.92;1.05;;;;;;;-147.53;100.00;57128.34;10503588;28;20492;-82
2023/07/01 12:30:58;;;;;;;4.78;2.28;;;;;;;-147.53;100.00;57128.34;10477489;28;1302069;-82
2023/07/01 12:36:00;;;;;;;4.70;2.03;;;;;;;-147.53;100.00;57128.34;10527626;28;20100;-81
2023/07/01 12:41:02;;;;;;;4.85;2.10;;;;;;;-147.53;100.00;57128.34;10513865;28;20055;-81
2023/07/01 12:46:04;;;;;;;3.00;1.58;;;;;;;-147.53;100.00;57128.34;10508268;27;20044;-79
2023/07/01 12:51:05;;;;;;;4.20;1.52;;;;;;;-147.53;100.00;57128.34;10527831;28;20115;-80
2023/07/01 12:56:07;;;;;;;4.25;1.60;;;;;;;-147.53;100.00;57128.34;10507734;28;20048;-81
2023/07/01 13:01:09;;;;;;;3.10;1.77;;;;;;;-147.53;100.00;57128.34;10506513;28;20051;-80
2023/07/01 13:06:29;;;;;;;4.30;1.60;;;;;;;-147.53;100.00;57128.34;10533494;28;20055;-80
2023/07/01 13:11:36;;;;;;;5.28;2.00;;;;;;;-147.53;100.00;57128.34;10480286;28;20097;-79
2023/07/01 13:16:40;;;;;;;5.97;2.60;;;;;;;-147.53;100.00;57128.34;10526624;28;20040;-81
2023/07/01 13:21:46;;;;;;;8.85;3.33;;;;;;;-147.53;100.00;57128.34;10492594;28;20139;-79
2023/07/01 13:26:49;;;;;;;7.63;3.08;;;;;;;-147.53;100.00;57128.34;10510391;28;20054;-81
2023/07/01 13:31:55;;;;;;;6.25;2.70;;;;;;;-147.53;100.00;57128.34;10495400;28;20056;-81
2023/07/01 13:36:57;;;;;;;5.13;2.50;;;;;;;-147.53;100.00;57128.34;10496233;28;20048;-81
2023/07/01 13:42:00;;;;;;;4.10;2.10;;;;;;;-147.53;100.00;57128.34;10507195;28;20040;-81
2023/07/01 13:47:02;;;;;;;7.85;3.13;;;;;;;-147.53;100.00;57128.34;10517603;28;20051;-77
2023/07/01 13:52:04;;;;;;;8.82;3.60;;;;;;;-147.53;100.00;57128.34;10512260;28;20052;-77
2023/07/01 13:57:20;;;;;;;6.43;2.65;;;;;;;-147.53;100.00;57128.34;10506058;28;20048;-77
2023/07/01 14:02:21;;;;;;;5.53;2.65;;;;;;;-147.53;100.00;57128.34;10505068;28;20074;-78
2023/07/01 14:07:23;;;;;;;8.45;3.80;;;;;;;-147.53;100.00;57128.34;10511313;28;20049;-77
2023/07/01 14:12:25;;;;;;;8.32;3.95;;;;;;;-147.53;100.00;57128.34;10513963;28;20048;-77
2023/07/01 14:17:27;;;;;;;8.60;3.47;;;;;;;-147.53;100.00;57128.34;10522328;28;20043;-77
2023/07/01 14:22:30;;;;;;;12.15;4.35;;;;;;;-147.53;100.00;57128.34;10501105;28;20052;-78
2023/07/01 14:27:32;;;;;;;7.50;3.47;;;;;;;-147.53;100.00;57128.34;10507412;28;20579;-79
2023/07/01 14:32:34;;;;;;;10.90;4.43;;;;;;;-147.53;100.00;57128.34;10494171;28;20067;-78
2023/07/01 14:37:35;;;;;;;12.25;4.85;;;;;;;-147.53;100.00;57128.34;10499871;28;20051;-79
2023/07/01 14:42:37;;;;;;;9.68;3.88;;;;;;;-147.53;100.00;57128.34;10483800;28;20064;-78
2023/07/01 14:47:39;;;;;;;8.88;4.53;;;;;;;-147.53;100.00;57128.34;10488761;28;20048;-77
2023/07/01 14:52:43;;;;;;;9.23;3.70;;;;;;;-147.53;100.00;57128.34;10501466;28;20044;-78
2023/07/01 14:57:47;;;;;;;12.63;5.45;;;;;;;-147.53;100.00;57128.34;10479642;28;20143;-78
2023/07/01 15:02:49;;;;;;;9.13;4.03;;;;;;;-147.53;100.00;57128.34;10491085;28;20075;-78
2023/07/01 15:07:50;;;;;;;9.60;4.10;;;;;;;-147.53;100.00;57128.34;10496729;28;20116;-78
2023/07/01 15:12:52;;;;;;;10.27;4.07;;;;;;;-147.53;100.00;57128.34;10520975;28;20444;-77
2023/07/01 15:17:54;;;;;;;14.93;3.42;;;;;;;-147.53;100.00;57128.34;10509575;28;20106;-77
2023/07/01 15:22:57;;;;;;;8.68;4.13;;;;;;;-147.53;100.00;57128.34;10519313;28;20810;-78
2023/07/01 15:27:58;;;;;;;13.55;4.53;;;;;;;-147.53;100.00;57128.34;10500531;28;20480;-78
2023/07/01 15:33:00;;;;;;;7.78;3.80;;;;;;;-147.53;100.00;57128.34;10508934;28;20072;-78
2023/07/01 15:38:02;;;;;;;9.73;4.45;;;;;;;-147.53;100.00;57128.34;10522196;28;20050;-78
2023/07/01 15:43:04;;;;;;;8.57;3.78;;;;;;;18.68;96.62;100001.31;10503617;28;20517;-78
2023/07/01 15:48:06;;;;;;;10.48;4.47;;;;;;;18.76;96.21;100006.38;10498699;28;20140;-77
2023/07/01 15:53:08;;;;;;;8.32;3.65;;;;;;;18.68;95.75;100004.81;10505459;28;20059;-77
2023/07/01 15:58:09;;;;;;;6.82;3.25;;;;;;;18.79;95.92;100015.09;10475115;28;20053;-77
2023/07/01 16:03:11;;;;;;;5.53;2.60;;;;;;;18.83;95.58;100021.22;10457285;28;20403;-77
2023/07/01 16:08:14;;;;;;;6.55;3.03;;;;;;;18.77;95.13;100014.28;10482147;28;20054;-77
2023/07/01 16:13:39;;;;;;;5.72;2.25;;;;;;;18.71;94.78;100022.44;10490484;28;20094;-78
2023/07/01 16:18:47;;;;;;;2.65;1.67;;;;;;;18.80;94.45;100027.47;10485644;28;20141;-76
2023/07/01 16:23:52;;;;;;;4.85;2.20;;;;;;;19.08;93.87;100030.19;10488485;28;20574;-77
2023/07/01 16:28:54;;;;;;;5.05;1.92;;;;;;;18.98;92.68;100044.66;10485814;28;20049;-77
2023/07/01 16:33:56;;;;;;;3.17;1.75;;;;;;;18.87;91.35;100039.66;10448988;28;20052;-77
2023/07/01 16:39:00;;;;;;;2.55;1.42;;;;;;;18.76;90.14;100051.47;10484449;28;20076;-77
2023/07/01 16:44:03;;;;;;;3.15;1.23;;;;;;;18.70;89.58;100049.84;10452417;28;20718;-78
2023/07/01 16:49:07;;;;;;;3.13;1.73;;;;;;;18.55;89.01;100052.03;10486963;28;20056;-78
2023/07/01 16:54:26;;;;;;;3.80;1.80;;;;;;;18.55;89.00;100057.34;10489957;28;20074;-80
2023/07/01 16:59:27;;;;;;;;;;;;;;;18.51;88.84;100047.72;10475647;28;20045;-80
2023/07/01 17:04:34;;;;;;;3.58;1.73;;;;;;;18.76;88.39;100043.50;10493233;28;19924;-80
2023/07/01 17:09:38;;;;;;;6.03;1.88;;;;;;;18.94;87.52;100047.44;10478180;28;20040;-80
2023/07/01 17:14:45;;;;;;;9.48;4.20;;;;;;;19.28;85.38;100065.88;10495935;28;20078;-80
2023/07/01 17:19:47;;;;;;;13.43;5.80;;;;;;;19.48;83.39;100070.56;10476013;28;20628;-83
2023/07/01 17:24:48;;;;;;;5.13;2.03;;;;;;;19.05;82.91;100069.19;10479914;28;20075;-81
2023/07/01 17:29:50;;;;;;;2.75;1.55;;;;;;;18.95;83.04;100076.56;10492998;28;20139;-82
2023/07/01 17:35:15;;;;;;;3.22;1.60;;;;;;;18.68;82.90;100084.34;10476041;28;20052;-81
2023/07/01 17:40:19;;;;;;;3.55;1.50;;;;;;;18.70;83.34;100094.91;10496612;28;20057;-81
2023/07/01 17:45:21;;;;;;;3.20;1.63;;;;;;;18.54;83.62;100103.31;10495914;28;20041;-81
2023/07/01 17:50:22;;;;;;;3.15;1.38;;;;;;;-147.53;100.00;57128.34;10496733;28;20048;-80
2023/07/01 17:55:24;;;;;;;5.85;1.45;;;;;;;-147.53;100.00;57128.34;10497518;28;20058;-81
2023/07/01 18:00:26;;;;;;;3.33;1.70;;;;;;;-147.53;100.00;57128.34;10475704;28;20047;-81
2023/07/01 18:05:27;;;;;;;2.33;1.33;;;;;;;-147.53;100.00;57128.34;10492645;28;20067;-80
2023/07/01 18:10:29;;;;;;;1.63;0.90;;;;;;;-147.53;100.00;57128.34;10494731;28;20071;-81
2023/07/01 18:15:31;;;;;;;1.25;1.00;;;;;;;-147.53;100.00;57128.34;10492709;28;20075;-81
2023/07/01 18:20:32;;;;;;;2.50;0.90;;;;;;;-147.53;100.00;57128.34;10478331;28;20414;-81
2023/07/01 18:25:54;;;;;;;1.67;0.90;;;;;;;-147.53;100.00;57128.34;10490811;28;20134;-81
2023/07/01 18:30:56;;;;;;;1.90;1.30;;;;;;;-147.53;100.00;57128.34;10493912;28;20068;-81
2023/07/01 18:35:57;;;;;;;1.50;0.82;;;;;;;-147.53;100.00;57128.34;10479322;28;20090;-81
2023/07/01 18:40:59;;;;;;;4.88;1.00;;;;;;;-147.53;100.00;57128.34;10496715;28;20110;-81
2023/07/01 18:46:01;;;;;;;2.70;0.82;;;;;;;-147.53;100.00;57128.34;10497099;28;20048;-81
2023/07/01 18:51:03;;;;;;;2.90;0.95;;;;;;;-147.53;100.00;57128.34;10499371;28;20040;-82
2023/07/01 18:56:05;;;;;;;1.23;0.70;;;;;;;-147.53;100.00;57128.34;10477395;28;20068;-82
2023/07/01 19:01:07;;;;;;;1.88;1.00;;;;;;;-147.53;100.00;57128.34;10501438;28;20036;-81
2023/07/01 19:06:08;;;;;;;1.58;0.77;;;;;;;-147.53;100.00;57128.34;10503909;28;20203;-82
2023/07/01 19:11:11;;;;;;;1.83;0.85;;;;;;;-147.53;100.00;57128.34;10518680;28;20061;-81
2023/07/01 19:16:13;;;;;;;2.22;1.05;;;;;;;-147.53;100.00;57128.34;10487898;28;20040;-81
2023/07/01 19:21:17;;;;;;;5.50;1.13;;;;;;;-147.53;100.00;57128.34;10516626;28;20047;-81
2023/07/01 19:26:19;;;;;;;2.65;0.75;;;;;;;-147.53;100.00;57128.34;10493991;28;20045;-81
2023/07/01 19:31:20;;;;;;;1.23;0.75;;;;;;;-147.53;100.00;57128.34;10508451;28;20053;-81
2023/07/01 19:36:22;;;;;;;1.95;0.70;;;;;;;-147.53;100.00;57128.34;10507837;28;20067;-81
2023/07/01 19:41:25;;;;;;;2.53;0.75;;;;;;;-147.53;100.00;57128.34;10512097;28;20392;-81
2023/07/01 19:46:26;;;;;;;2.60;0.85;;;;;;;-147.53;100.00;57128.34;10497238;28;20040;-81
2023/07/01 19:51:28;;;;;;;5.38;1.13;;;;;;;-147.53;100.00;57128.34;10519588;28;20105;-81
2023/07/01 19:56:30;;;;;;;1.55;0.85;;;;;;;-147.53;100.00;57128.34;10498937;28;20051;-81
2023/07/01 20:01:33;;;;;;;1.73;1.10;;;;;;;-147.53;100.00;57128.34;10515640;28;20048;-81
2023/07/01 20:06:34;;;;;;;2.78;1.23;;;;;;;-147.53;100.00;57128.34;10515577;28;20509;-81
2023/07/01 20:11:36;;;;;;;1.80;0.80;;;;;;;-147.53;100.00;57128.34;10479813;28;20097;-82
2023/07/01 20:16:37;;;;;;;1.50;0.80;;;;;;;-147.53;100.00;57128.34;10499574;28;20074;-83
2023/07/01 20:21:39;;;;;;;4.38;0.60;;;;;;;-147.53;100.00;57128.34;10522283;28;20074;-81
2023/07/01 20:26:43;;;;;;;2.20;0.80;;;;;;;-147.53;100.00;57128.34;10496502;28;20486;-80
2023/07/01 20:31:45;;;;;;;0.95;0.70;;;;;;;-147.53;100.00;57128.34;10527504;28;20074;-81
2023/07/01 20:36:47;;;;;;;0.98;0.70;;;;;;;-147.53;100.00;57128.34;10537351;28;20056;-82
2023/07/01 20:41:50;;;;;;;2.40;0.65;;;;;;;-147.53;100.00;57128.34;10506690;28;20041;-81
2023/07/01 20:47:12;;;;;;;1.42;0.63;;;;;;;-147.53;100.00;57128.34;10513743;28;20051;-81
2023/07/01 20:52:20;;;;;;;0.85;0.50;;;;;;;-147.53;100.00;57128.34;10496801;28;20048;-81
2023/07/01 20:57:21;;;;;;;0.60;0.60;;;;;;;-147.53;100.00;57128.34;10505244;28;20129;-81
2023/07/01 21:02:23;;;;;;;2.42;0.70;;;;;;;-147.53;100.00;57128.34;10505449;28;20176;-81
2023/07/01 21:07:25;;;;;;;0.65;0.50;;;;;;;-147.53;100.00;57128.34;10506045;28;20045;-81
2023/07/01 21:12:26;;;;;;;1.35;0.77;;;;;;;-147.53;100.00;57128.34;10486463;28;20052;-82
2023/07/01 21:17:30;;;;;;;2.75;0.82;;;;;;;-147.53;100.00;57128.34;10449068;28;20072;-82
2023/07/01 21:22:31;;;;;;;2.75;0.93;;;;;;;-147.53;100.00;57128.34;10486043;28;20056;-81
2023/07/01 21:27:47;;;;;;;6.72;1.02;;;;;;;-147.53;100.00;57128.34;10493731;28;20128;-82
2023/07/01 21:32:49;;;;;;;2.22;1.02;;;;;;;-147.53;100.00;57128.34;10507239;28;20041;-83
2023/07/01 21:37:51;;;;;;;2.45;1.02;;;;;;;-147.53;100.00;57128.34;10492976;28;20029;-81
2023/07/01 21:42:57;;;;;;;4.43;1.17;;;;;;;-147.53;100.00;57128.34;10495119;28;20044;-82
2023/07/01 21:47:59;;;;;;;3.92;1.10;;;;;;;-147.53;100.00;57128.34;10512731;28;20051;-81
2023/07/01 21:53:01;;;;;;;7.35;1.27;;;;;;;-147.53;100.00;57128.34;10498003;28;20139;-81
2023/07/01 21:58:05;;;;;;;4.72;1.15;;;;;;;-147.53;100.00;57128.34;10512427;28;20044;-81
2023/07/01 22:03:09;;;;;;;5.85;1.30;;;;;;;-147.53;100.00;57128.34;10516311;28;20438;-81
2023/07/01 22:08:11;;;;;;;4.38;1.20;;;;;;;-147.53;100.00;57128.34;10528692;28;20060;-81
2023/07/01 22:13:13;;;;;;;5.43;1.42;;;;;;;-147.53;100.00;57128.34;10510488;28;20044;-82
2023/07/01 22:18:15;;;;;;;3.28;1.17;;;;;;;-147.53;100.00;57128.34;10495227;28;20082;-82
2023/07/01 22:23:17;;;;;;;3.55;1.33;;;;;;;-147.53;100.00;57128.34;10515907;28;20056;-81
2023/07/01 22:28:19;;;;;;;5.93;1.40;;;;;;;-147.53;100.00;57128.34;10512492;28;20419;-82
2023/07/01 22:33:20;;;;;;;3.95;1.30;;;;;;;-147.53;100.00;57128.34;10513036;28;20040;-82
2023/07/01 22:38:22;;;;;;;10.73;1.60;;;;;;;-147.53;100.00;57128.34;10502475;28;20075;-82
2023/07/01 22:43:24;;;;;;;2.88;1.33;;;;;;;-147.53;100.00;57128.34;10520868;28;20131;-81